WZZ1401 EPMO-LIME
Flight info
| Callsign | WZZ1401 |
|---|---|
| Flight time | 1h 41m |
| Altitude | 34000 |
| Route | EVINA N744 TUSIN DCT MIKOV DCT DETSA/N0450F350 DCT RENTA DCT ATPED/N0378F190 M984 LUSIL T772 EKLIB |
| Aircraft | A21N/M-SDE2E3FGHIRWXY/LB1 |
Departure
| Time | 2026-04-26 12:12 |
|---|---|
| Airport | Warsaw Modlin Airport (EPMO) |
Arrival
| Time | 2026-04-26 13:54 |
|---|---|
| Airport | Il Caravaggio International Airport (LIME) |
| Time | Latitude | Longitude | Altitude | Speed | Heading |
|---|---|---|---|---|---|
| 2026-04-26 11:49 | 52.44749 | 20.65262 | 351 ft | 0 kts | 206° |
| 2026-04-26 12:02 | 52.44767 | 20.65273 | 346 ft | 4 kts | 184° |
| 2026-04-26 12:03 | 52.44787 | 20.65264 | 353 ft | 4 kts | 120° |
| 2026-04-26 12:03 | 52.44790 | 20.65241 | 351 ft | 1 kts | 81° |
| 2026-04-26 12:03 | 52.44789 | 20.65236 | 353 ft | 0 kts | 81° |
| 2026-04-26 12:06 | 52.44790 | 20.65248 | 352 ft | 3 kts | 81° |
| 2026-04-26 12:06 | 52.44796 | 20.65307 | 340 ft | 7 kts | 81° |
| 2026-04-26 12:06 | 52.44806 | 20.65416 | 351 ft | 12 kts | 81° |
| 2026-04-26 12:07 | 52.44820 | 20.65573 | 347 ft | 16 kts | 82° |
| 2026-04-26 12:07 | 52.44837 | 20.65776 | 351 ft | 19 kts | 82° |
| 2026-04-26 12:07 | 52.44858 | 20.66001 | 343 ft | 21 kts | 81° |
| 2026-04-26 12:07 | 52.44881 | 20.66240 | 353 ft | 22 kts | 81° |
| 2026-04-26 12:08 | 52.44905 | 20.66494 | 343 ft | 23 kts | 81° |
| 2026-04-26 12:08 | 52.44930 | 20.66764 | 343 ft | 25 kts | 81° |
| 2026-04-26 12:08 | 52.44949 | 20.66964 | 344 ft | 14 kts | 81° |
| 2026-04-26 12:08 | 52.44978 | 20.67074 | 351 ft | 12 kts | 27° |
| 2026-04-26 12:09 | 52.45064 | 20.67067 | 345 ft | 13 kts | 351° |
| 2026-04-26 12:09 | 52.45116 | 20.67054 | 350 ft | 3 kts | 351° |
| 2026-04-26 12:09 | 52.45146 | 20.67046 | 349 ft | 5 kts | 351° |
| 2026-04-26 12:09 | 52.45186 | 20.67034 | 346 ft | 3 kts | 344° |
| 2026-04-26 12:10 | 52.45195 | 20.67029 | 349 ft | 0 kts | 341° |
| 2026-04-26 12:10 | 52.45204 | 20.67024 | 346 ft | 4 kts | 341° |
| 2026-04-26 12:10 | 52.45243 | 20.67002 | 347 ft | 8 kts | 341° |
| 2026-04-26 12:11 | 52.45286 | 20.66942 | 346 ft | 9 kts | 276° |
| 2026-04-26 12:11 | 52.45283 | 20.66898 | 344 ft | 0 kts | 261° |
| 2026-04-26 12:11 | 52.45281 | 20.66871 | 353 ft | 17 kts | 261° |
| 2026-04-26 12:11 | 52.45222 | 20.66237 | 342 ft | 94 kts | 263° |
| 2026-04-26 12:12 | 52.45079 | 20.64846 | 433 ft | 140 kts | 266° |
| 2026-04-26 12:12 | 52.44865 | 20.63265 | 1009 ft | 146 kts | 267° |
| 2026-04-26 12:12 | 52.44789 | 20.61606 | 1596 ft | 150 kts | 274° |
| 2026-04-26 12:12 | 52.44708 | 20.60438 | 1929 ft | 162 kts | 270° |
| 2026-04-26 12:13 | 52.44438 | 20.57831 | 2640 ft | 184 kts | 268° |
| 2026-04-26 12:13 | 52.44322 | 20.55627 | 3093 ft | 201 kts | 284° |
| 2026-04-26 12:13 | 52.44831 | 20.53511 | 3781 ft | 202 kts | 311° |
| 2026-04-26 12:13 | 52.46020 | 20.52184 | 4295 ft | 222 kts | 344° |
| 2026-04-26 12:14 | 52.47610 | 20.51961 | 5043 ft | 235 kts | 355° |
| 2026-04-26 12:14 | 52.49259 | 20.51933 | 5634 ft | 238 kts | 355° |
| 2026-04-26 12:14 | 52.50913 | 20.51864 | 6205 ft | 237 kts | 354° |
| 2026-04-26 12:14 | 52.52518 | 20.51765 | 6976 ft | 241 kts | 354° |
| 2026-04-26 12:15 | 52.54256 | 20.51638 | 7861 ft | 244 kts | 354° |
| 2026-04-26 12:15 | 52.55958 | 20.51500 | 8757 ft | 246 kts | 354° |
| 2026-04-26 12:15 | 52.57663 | 20.51569 | 9634 ft | 252 kts | 5° |
| 2026-04-26 12:15 | 52.59332 | 20.52595 | 10467 ft | 264 kts | 25° |
| 2026-04-26 12:16 | 52.60708 | 20.54741 | 11079 ft | 290 kts | 47° |
| 2026-04-26 12:16 | 52.61492 | 20.58009 | 11396 ft | 327 kts | 71° |
| 2026-04-26 12:16 | 52.61826 | 20.61848 | 11706 ft | 350 kts | 75° |
| 2026-04-26 12:16 | 52.62135 | 20.65946 | 12010 ft | 369 kts | 75° |
| 2026-04-26 12:17 | 52.62439 | 20.70250 | 12304 ft | 391 kts | 80° |
| 2026-04-26 12:17 | 52.62106 | 20.74813 | 12863 ft | 413 kts | 98° |
| 2026-04-26 12:17 | 52.60931 | 20.79206 | 13477 ft | 431 kts | 116° |
| 2026-04-26 12:17 | 52.58982 | 20.83047 | 14037 ft | 446 kts | 134° |
| 2026-04-26 12:18 | 52.56384 | 20.85978 | 14508 ft | 457 kts | 152° |
| 2026-04-26 12:18 | 52.53365 | 20.87688 | 14987 ft | 462 kts | 171° |
| 2026-04-26 12:18 | 52.50177 | 20.88471 | 15526 ft | 467 kts | 174° |
| 2026-04-26 12:18 | 52.46971 | 20.89547 | 16036 ft | 475 kts | 166° |
| 2026-04-26 12:19 | 52.43794 | 20.91196 | 16574 ft | 482 kts | 161° |
| 2026-04-26 12:19 | 52.40633 | 20.93129 | 17088 ft | 489 kts | 159° |
| 2026-04-26 12:19 | 52.37444 | 20.95166 | 17603 ft | 495 kts | 159° |
| 2026-04-26 12:19 | 52.34203 | 20.97175 | 18046 ft | 501 kts | 163° |
| 2026-04-26 12:20 | 52.30809 | 20.98428 | 18513 ft | 502 kts | 178° |
| 2026-04-26 12:20 | 52.27343 | 20.98429 | 19001 ft | 495 kts | 193° |
| 2026-04-26 12:20 | 52.24026 | 20.97188 | 19514 ft | 484 kts | 208° |
| 2026-04-26 12:20 | 52.21036 | 20.94879 | 20028 ft | 469 kts | 222° |
| 2026-04-26 12:21 | 52.18468 | 20.91738 | 20529 ft | 457 kts | 233° |
| 2026-04-26 12:21 | 52.16125 | 20.88247 | 21031 ft | 457 kts | 234° |
| 2026-04-26 12:21 | 52.13782 | 20.84719 | 21528 ft | 460 kts | 234° |
| 2026-04-26 12:21 | 52.11405 | 20.81195 | 21987 ft | 463 kts | 233° |
| 2026-04-26 12:22 | 52.09000 | 20.77681 | 22486 ft | 466 kts | 233° |
| 2026-04-26 12:22 | 52.06566 | 20.74161 | 22970 ft | 469 kts | 233° |
| 2026-04-26 12:22 | 52.04120 | 20.70627 | 23462 ft | 472 kts | 233° |
| 2026-04-26 12:22 | 52.01662 | 20.67073 | 23895 ft | 474 kts | 233° |
| 2026-04-26 12:23 | 51.99190 | 20.63502 | 24310 ft | 477 kts | 233° |
| 2026-04-26 12:23 | 51.96687 | 20.59934 | 24718 ft | 482 kts | 231° |
| 2026-04-26 12:23 | 51.93864 | 20.56819 | 25110 ft | 504 kts | 219° |
| 2026-04-26 12:23 | 51.90577 | 20.54571 | 25474 ft | 518 kts | 210° |
| 2026-04-26 12:24 | 51.87209 | 20.52641 | 25914 ft | 519 kts | 209° |
| 2026-04-26 12:24 | 51.83801 | 20.50721 | 26418 ft | 518 kts | 209° |
| 2026-04-26 12:24 | 51.80412 | 20.48780 | 26932 ft | 516 kts | 210° |
| 2026-04-26 12:25 | 51.73674 | 20.44875 | 27945 ft | 512 kts | 210° |
| 2026-04-26 12:25 | 51.70326 | 20.42927 | 28444 ft | 511 kts | 210° |
| 2026-04-26 12:25 | 51.66980 | 20.41009 | 28940 ft | 512 kts | 209° |
| 2026-04-26 12:25 | 51.63461 | 20.39676 | 29409 ft | 527 kts | 197° |
| 2026-04-26 12:26 | 51.59799 | 20.39098 | 29875 ft | 530 kts | 194° |
| 2026-04-26 12:26 | 51.56118 | 20.38595 | 30310 ft | 529 kts | 194° |
| 2026-04-26 12:26 | 51.52464 | 20.38078 | 30704 ft | 527 kts | 194° |
| 2026-04-26 12:26 | 51.48863 | 20.37547 | 31078 ft | 526 kts | 194° |
| 2026-04-26 12:27 | 51.45225 | 20.36997 | 31379 ft | 524 kts | 194° |
| 2026-04-26 12:27 | 51.41626 | 20.36346 | 31843 ft | 513 kts | 199° |
| 2026-04-26 12:27 | 51.38276 | 20.34800 | 32205 ft | 490 kts | 214° |
| 2026-04-26 12:27 | 51.35387 | 20.32189 | 32522 ft | 467 kts | 227° |
| 2026-04-26 12:28 | 51.32819 | 20.29074 | 32850 ft | 461 kts | 230° |
| 2026-04-26 12:28 | 51.30301 | 20.25903 | 33171 ft | 460 kts | 230° |
| 2026-04-26 12:28 | 51.27763 | 20.22770 | 33520 ft | 460 kts | 230° |
| 2026-04-26 12:28 | 51.25212 | 20.19676 | 33815 ft | 460 kts | 229° |
| 2026-04-26 12:29 | 51.22659 | 20.16590 | 34066 ft | 459 kts | 229° |
| 2026-04-26 12:29 | 51.20116 | 20.13522 | 34216 ft | 458 kts | 229° |
| 2026-04-26 12:30 | 51.12486 | 20.04401 | 34204 ft | 457 kts | 229° |
| 2026-04-26 12:30 | 51.07422 | 19.98371 | 34196 ft | 457 kts | 228° |
| 2026-04-26 12:31 | 50.99789 | 19.89326 | 34180 ft | 453 kts | 227° |
| 2026-04-26 12:31 | 50.94726 | 19.83338 | 34193 ft | 453 kts | 227° |
| 2026-04-26 12:32 | 50.89667 | 19.77370 | 34192 ft | 453 kts | 227° |
| 2026-04-26 12:33 | 50.82070 | 19.68447 | 34177 ft | 452 kts | 227° |
| 2026-04-26 12:33 | 50.77054 | 19.62581 | 34206 ft | 451 kts | 227° |
| 2026-04-26 12:34 | 50.72018 | 19.56698 | 34214 ft | 451 kts | 227° |
| 2026-04-26 12:34 | 50.66975 | 19.50828 | 34217 ft | 450 kts | 227° |
| 2026-04-26 12:35 | 50.61919 | 19.44954 | 34154 ft | 450 kts | 225° |
| 2026-04-26 12:35 | 50.56877 | 19.39118 | 34222 ft | 450 kts | 225° |
| 2026-04-26 12:36 | 50.51825 | 19.33285 | 34234 ft | 451 kts | 225° |
| 2026-04-26 12:36 | 50.46767 | 19.27459 | 34263 ft | 451 kts | 225° |
| 2026-04-26 12:36 | 50.44234 | 19.24548 | 34479 ft | 451 kts | 225° |
| 2026-04-26 12:37 | 50.41705 | 19.21646 | 34693 ft | 450 kts | 225° |
| 2026-04-26 12:37 | 50.39182 | 19.18755 | 34925 ft | 448 kts | 225° |
| 2026-04-26 12:37 | 50.36665 | 19.15875 | 35150 ft | 448 kts | 225° |
| 2026-04-26 12:37 | 50.34146 | 19.12994 | 35265 ft | 448 kts | 225° |
| 2026-04-26 12:38 | 50.31628 | 19.10123 | 35280 ft | 448 kts | 225° |
| 2026-04-26 12:38 | 50.26570 | 19.04351 | 35249 ft | 457 kts | 224° |
| 2026-04-26 12:39 | 50.21385 | 18.98458 | 35219 ft | 462 kts | 224° |
| 2026-04-26 12:39 | 50.16179 | 18.92566 | 35245 ft | 461 kts | 224° |
| 2026-04-26 12:40 | 50.10982 | 18.86696 | 35239 ft | 461 kts | 224° |
| 2026-04-26 12:40 | 50.05786 | 18.80841 | 35230 ft | 461 kts | 224° |
| 2026-04-26 12:41 | 50.00587 | 18.74996 | 35212 ft | 460 kts | 223° |
| 2026-04-26 12:41 | 49.95394 | 18.69175 | 35230 ft | 460 kts | 223° |
| 2026-04-26 12:42 | 49.90209 | 18.63378 | 35244 ft | 460 kts | 223° |
| 2026-04-26 12:42 | 49.85909 | 18.58536 | 35247 ft | 457 kts | 225° |
| 2026-04-26 12:42 | 49.82959 | 18.54016 | 35223 ft | 446 kts | 236° |
| 2026-04-26 12:43 | 49.81004 | 18.50310 | 35240 ft | 444 kts | 237° |
| 2026-04-26 12:43 | 49.77794 | 18.44114 | 35252 ft | 443 kts | 237° |
| 2026-04-26 12:44 | 49.73898 | 18.36695 | 35253 ft | 444 kts | 237° |
| 2026-04-26 12:44 | 49.69989 | 18.29308 | 35253 ft | 444 kts | 237° |
| 2026-04-26 12:45 | 49.66072 | 18.21933 | 35261 ft | 444 kts | 237° |
| 2026-04-26 12:45 | 49.62155 | 18.14575 | 35259 ft | 444 kts | 237° |
| 2026-04-26 12:46 | 49.58234 | 18.07234 | 35258 ft | 444 kts | 236° |
| 2026-04-26 12:46 | 49.54309 | 17.99901 | 35255 ft | 443 kts | 236° |
| 2026-04-26 12:47 | 49.50380 | 17.92583 | 35253 ft | 443 kts | 236° |
| 2026-04-26 12:47 | 49.46468 | 17.85320 | 35228 ft | 444 kts | 236° |
| 2026-04-26 12:48 | 49.42523 | 17.78011 | 35244 ft | 444 kts | 236° |
| 2026-04-26 12:48 | 49.38576 | 17.70716 | 35235 ft | 444 kts | 236° |
| 2026-04-26 12:49 | 49.34629 | 17.63446 | 35235 ft | 444 kts | 236° |
| 2026-04-26 12:49 | 49.30669 | 17.56171 | 35227 ft | 444 kts | 236° |
| 2026-04-26 12:50 | 49.26701 | 17.48900 | 35224 ft | 444 kts | 235° |
| 2026-04-26 12:50 | 49.22754 | 17.41687 | 35232 ft | 444 kts | 235° |
| 2026-04-26 12:51 | 49.18773 | 17.34436 | 35254 ft | 444 kts | 235° |
| 2026-04-26 12:51 | 49.14788 | 17.27198 | 35255 ft | 445 kts | 235° |
| 2026-04-26 12:52 | 49.10794 | 17.19958 | 35247 ft | 445 kts | 234° |
| 2026-04-26 12:52 | 49.06802 | 17.12747 | 35257 ft | 445 kts | 234° |
| 2026-04-26 12:53 | 49.02830 | 17.05585 | 35249 ft | 445 kts | 234° |
| 2026-04-26 12:53 | 48.98825 | 16.98388 | 35243 ft | 445 kts | 234° |
| 2026-04-26 12:54 | 48.94803 | 16.91184 | 35236 ft | 445 kts | 234° |
| 2026-04-26 12:54 | 48.90792 | 16.84016 | 35241 ft | 445 kts | 233° |
| 2026-04-26 12:55 | 48.86777 | 16.76857 | 35245 ft | 445 kts | 233° |
| 2026-04-26 12:55 | 48.82750 | 16.69696 | 35243 ft | 445 kts | 233° |
| 2026-04-26 12:56 | 48.78746 | 16.62530 | 35236 ft | 444 kts | 236° |
| 2026-04-26 12:56 | 48.75349 | 16.54764 | 35230 ft | 442 kts | 240° |
| 2026-04-26 12:57 | 48.72066 | 16.46965 | 35242 ft | 442 kts | 240° |
| 2026-04-26 12:57 | 48.68740 | 16.39120 | 35238 ft | 442 kts | 240° |
| 2026-04-26 12:58 | 48.63745 | 16.27380 | 35243 ft | 442 kts | 240° |
| 2026-04-26 12:58 | 48.60402 | 16.19555 | 35238 ft | 443 kts | 240° |
| 2026-04-26 12:59 | 48.57051 | 16.11740 | 35238 ft | 443 kts | 239° |
| 2026-04-26 12:59 | 48.53692 | 16.03919 | 35238 ft | 443 kts | 239° |
| 2026-04-26 13:00 | 48.50334 | 15.96129 | 35244 ft | 443 kts | 239° |
| 2026-04-26 13:00 | 48.46967 | 15.88339 | 35242 ft | 443 kts | 239° |
| 2026-04-26 13:01 | 48.43613 | 15.80603 | 35238 ft | 443 kts | 239° |
| 2026-04-26 13:01 | 48.40236 | 15.72831 | 35231 ft | 444 kts | 239° |
| 2026-04-26 13:02 | 48.36848 | 15.65064 | 35238 ft | 443 kts | 239° |
| 2026-04-26 13:02 | 48.35172 | 15.61239 | 35229 ft | 432 kts | 239° |
| 2026-04-26 13:02 | 48.33529 | 15.57483 | 35380 ft | 430 kts | 239° |
| 2026-04-26 13:03 | 48.31884 | 15.53727 | 35605 ft | 429 kts | 239° |
| 2026-04-26 13:03 | 48.30243 | 15.49986 | 35755 ft | 428 kts | 239° |
| 2026-04-26 13:03 | 48.26969 | 15.42541 | 35743 ft | 427 kts | 239° |
| 2026-04-26 13:04 | 48.23693 | 15.35110 | 35725 ft | 427 kts | 239° |
| 2026-04-26 13:04 | 48.20429 | 15.27724 | 35727 ft | 427 kts | 239° |
| 2026-04-26 13:05 | 48.17136 | 15.20300 | 35724 ft | 427 kts | 238° |
| 2026-04-26 13:05 | 48.13845 | 15.12895 | 35718 ft | 427 kts | 238° |
| 2026-04-26 13:06 | 48.10552 | 15.05508 | 35716 ft | 427 kts | 238° |
| 2026-04-26 13:06 | 48.07250 | 14.98120 | 35713 ft | 426 kts | 238° |
| 2026-04-26 13:07 | 48.03948 | 14.90753 | 35719 ft | 426 kts | 238° |
| 2026-04-26 13:07 | 48.00662 | 14.83438 | 35717 ft | 427 kts | 238° |
| 2026-04-26 13:08 | 47.97345 | 14.76085 | 35736 ft | 426 kts | 238° |
| 2026-04-26 13:08 | 47.94029 | 14.68743 | 35710 ft | 427 kts | 238° |
| 2026-04-26 13:09 | 47.90705 | 14.61407 | 35708 ft | 427 kts | 238° |
| 2026-04-26 13:09 | 47.87378 | 14.54086 | 35705 ft | 426 kts | 238° |
| 2026-04-26 13:10 | 47.84049 | 14.46771 | 35703 ft | 427 kts | 238° |
| 2026-04-26 13:10 | 47.80732 | 14.39509 | 35704 ft | 427 kts | 238° |
| 2026-04-26 13:11 | 47.77384 | 14.32197 | 35705 ft | 427 kts | 238° |
| 2026-04-26 13:11 | 47.74058 | 14.24953 | 35704 ft | 427 kts | 238° |
| 2026-04-26 13:12 | 47.70688 | 14.17629 | 35695 ft | 427 kts | 238° |
| 2026-04-26 13:12 | 47.67350 | 14.10399 | 35686 ft | 427 kts | 237° |
| 2026-04-26 13:13 | 47.63983 | 14.03128 | 35696 ft | 427 kts | 237° |
| 2026-04-26 13:13 | 47.60610 | 13.95862 | 35691 ft | 427 kts | 237° |
| 2026-04-26 13:14 | 47.57234 | 13.88604 | 35688 ft | 427 kts | 237° |
| 2026-04-26 13:14 | 47.53848 | 13.81340 | 35703 ft | 427 kts | 237° |
| 2026-04-26 13:15 | 47.50485 | 13.74153 | 35701 ft | 427 kts | 237° |
| 2026-04-26 13:15 | 47.47645 | 13.68098 | 35686 ft | 427 kts | 237° |
| 2026-04-26 13:16 | 47.43704 | 13.59715 | 35698 ft | 427 kts | 237° |
| 2026-04-26 13:16 | 47.40306 | 13.52505 | 35671 ft | 428 kts | 237° |
| 2026-04-26 13:17 | 47.35197 | 13.41709 | 35698 ft | 428 kts | 237° |
| 2026-04-26 13:18 | 47.30078 | 13.30934 | 35686 ft | 427 kts | 237° |
| 2026-04-26 13:19 | 47.24954 | 13.20182 | 35676 ft | 427 kts | 237° |
| 2026-04-26 13:19 | 47.21550 | 13.13066 | 35684 ft | 428 kts | 237° |
| 2026-04-26 13:20 | 47.18118 | 13.05905 | 35679 ft | 429 kts | 237° |
| 2026-04-26 13:20 | 47.14682 | 12.98758 | 35673 ft | 428 kts | 237° |
| 2026-04-26 13:21 | 47.11246 | 12.91620 | 35679 ft | 427 kts | 237° |
| 2026-04-26 13:21 | 47.07795 | 12.84483 | 35660 ft | 428 kts | 237° |
| 2026-04-26 13:22 | 47.04344 | 12.77357 | 35666 ft | 429 kts | 236° |
| 2026-04-26 13:22 | 47.00882 | 12.70231 | 35668 ft | 429 kts | 236° |
| 2026-04-26 13:23 | 46.97411 | 12.63103 | 35663 ft | 429 kts | 236° |
| 2026-04-26 13:23 | 46.93963 | 12.56040 | 35658 ft | 429 kts | 236° |
| 2026-04-26 13:24 | 46.90479 | 12.48925 | 35661 ft | 430 kts | 236° |
| 2026-04-26 13:24 | 46.86999 | 12.41832 | 35679 ft | 429 kts | 236° |
| 2026-04-26 13:25 | 46.83514 | 12.34745 | 35695 ft | 430 kts | 236° |
| 2026-04-26 13:25 | 46.80076 | 12.27612 | 35693 ft | 429 kts | 241° |
| 2026-04-26 13:26 | 46.77379 | 12.19882 | 35699 ft | 427 kts | 245° |
| 2026-04-26 13:26 | 46.74761 | 12.12118 | 35635 ft | 427 kts | 245° |
| 2026-04-26 13:27 | 46.72121 | 12.04420 | 35620 ft | 427 kts | 245° |
| 2026-04-26 13:27 | 46.69452 | 11.96678 | 35623 ft | 427 kts | 245° |
| 2026-04-26 13:28 | 46.66773 | 11.88939 | 35613 ft | 427 kts | 245° |
| 2026-04-26 13:28 | 46.64098 | 11.81223 | 35607 ft | 427 kts | 245° |
| 2026-04-26 13:29 | 46.61411 | 11.73503 | 35605 ft | 427 kts | 245° |
| 2026-04-26 13:29 | 46.58722 | 11.65795 | 35592 ft | 427 kts | 245° |
| 2026-04-26 13:30 | 46.56046 | 11.58145 | 35570 ft | 427 kts | 244° |
| 2026-04-26 13:30 | 46.53347 | 11.50449 | 35562 ft | 428 kts | 244° |
| 2026-04-26 13:31 | 46.50634 | 11.42742 | 35549 ft | 428 kts | 244° |
| 2026-04-26 13:31 | 46.48360 | 11.36301 | 35554 ft | 428 kts | 244° |
| 2026-04-26 13:32 | 46.45643 | 11.28623 | 35550 ft | 427 kts | 244° |
| 2026-04-26 13:32 | 46.42942 | 11.21015 | 35587 ft | 427 kts | 244° |
| 2026-04-26 13:33 | 46.40251 | 11.13452 | 35747 ft | 428 kts | 244° |
| 2026-04-26 13:33 | 46.37518 | 11.05792 | 35760 ft | 428 kts | 244° |
| 2026-04-26 13:34 | 46.34780 | 10.98144 | 35749 ft | 427 kts | 244° |
| 2026-04-26 13:34 | 46.32047 | 10.90531 | 35306 ft | 425 kts | 244° |
| 2026-04-26 13:34 | 46.31125 | 10.87967 | 35117 ft | 426 kts | 244° |
| 2026-04-26 13:35 | 46.29327 | 10.82907 | 34779 ft | 426 kts | 245° |
| 2026-04-26 13:35 | 46.28004 | 10.79077 | 34529 ft | 425 kts | 245° |
| 2026-04-26 13:35 | 46.26684 | 10.75258 | 34128 ft | 423 kts | 245° |
| 2026-04-26 13:35 | 46.25370 | 10.71472 | 33414 ft | 420 kts | 245° |
| 2026-04-26 13:36 | 46.24056 | 10.67699 | 32676 ft | 421 kts | 245° |
| 2026-04-26 13:36 | 46.22726 | 10.63888 | 32000 ft | 426 kts | 245° |
| 2026-04-26 13:36 | 46.21393 | 10.60075 | 31246 ft | 426 kts | 245° |
| 2026-04-26 13:36 | 46.20055 | 10.56258 | 30512 ft | 426 kts | 245° |
| 2026-04-26 13:37 | 46.18712 | 10.52426 | 29605 ft | 428 kts | 245° |
| 2026-04-26 13:37 | 46.17352 | 10.48550 | 28780 ft | 438 kts | 245° |
| 2026-04-26 13:37 | 46.15992 | 10.44684 | 27854 ft | 437 kts | 244° |
| 2026-04-26 13:37 | 46.14614 | 10.40774 | 26913 ft | 438 kts | 244° |
| 2026-04-26 13:38 | 46.13229 | 10.36854 | 26033 ft | 439 kts | 244° |
| 2026-04-26 13:38 | 46.11848 | 10.32944 | 25266 ft | 437 kts | 244° |
| 2026-04-26 13:38 | 46.10470 | 10.29046 | 24524 ft | 434 kts | 244° |
| 2026-04-26 13:38 | 46.09099 | 10.25176 | 23802 ft | 432 kts | 244° |
| 2026-04-26 13:39 | 46.07732 | 10.21325 | 22989 ft | 430 kts | 244° |
| 2026-04-26 13:39 | 46.06372 | 10.17496 | 22205 ft | 427 kts | 244° |
| 2026-04-26 13:39 | 46.04962 | 10.13753 | 21437 ft | 424 kts | 239° |
| 2026-04-26 13:39 | 46.03105 | 10.10445 | 20735 ft | 426 kts | 225° |
| 2026-04-26 13:40 | 46.00834 | 10.07756 | 20344 ft | 427 kts | 219° |
| 2026-04-26 13:40 | 45.98465 | 10.05190 | 20125 ft | 423 kts | 218° |
| 2026-04-26 13:40 | 45.96127 | 10.02667 | 19160 ft | 422 kts | 218° |
| 2026-04-26 13:40 | 45.93764 | 10.00100 | 17916 ft | 427 kts | 218° |
| 2026-04-26 13:41 | 45.91400 | 9.97526 | 17012 ft | 423 kts | 219° |
| 2026-04-26 13:41 | 45.89084 | 9.95001 | 16483 ft | 409 kts | 218° |
| 2026-04-26 13:41 | 45.86848 | 9.92557 | 16087 ft | 404 kts | 218° |
| 2026-04-26 13:41 | 45.84616 | 9.90113 | 15715 ft | 401 kts | 219° |
| 2026-04-26 13:42 | 45.82408 | 9.87699 | 15374 ft | 398 kts | 218° |
| 2026-04-26 13:42 | 45.80200 | 9.85295 | 15018 ft | 397 kts | 218° |
| 2026-04-26 13:42 | 45.78002 | 9.82902 | 14665 ft | 395 kts | 218° |
| 2026-04-26 13:42 | 45.75818 | 9.80533 | 14334 ft | 393 kts | 218° |
| 2026-04-26 13:43 | 45.73644 | 9.78180 | 13975 ft | 391 kts | 218° |
| 2026-04-26 13:43 | 45.71480 | 9.75854 | 13581 ft | 384 kts | 217° |
| 2026-04-26 13:43 | 45.69368 | 9.73689 | 13186 ft | 373 kts | 212° |
| 2026-04-26 13:43 | 45.67002 | 9.72341 | 12772 ft | 363 kts | 192° |
| 2026-04-26 13:44 | 45.64528 | 9.72210 | 12381 ft | 354 kts | 172° |
| 2026-04-26 13:44 | 45.62205 | 9.73264 | 11848 ft | 349 kts | 155° |
| 2026-04-26 13:44 | 45.60044 | 9.74821 | 11273 ft | 346 kts | 153° |
| 2026-04-26 13:44 | 45.57891 | 9.76350 | 10623 ft | 346 kts | 154° |
| 2026-04-26 13:45 | 45.55716 | 9.77802 | 9930 ft | 346 kts | 155° |
| 2026-04-26 13:45 | 45.53503 | 9.79213 | 9151 ft | 347 kts | 158° |
| 2026-04-26 13:45 | 45.51163 | 9.80044 | 8395 ft | 348 kts | 171° |
| 2026-04-26 13:45 | 45.48855 | 9.81003 | 7620 ft | 344 kts | 153° |
| 2026-04-26 13:46 | 45.46939 | 9.82943 | 6874 ft | 333 kts | 134° |
| 2026-04-26 13:46 | 45.45599 | 9.85523 | 6345 ft | 316 kts | 117° |
| 2026-04-26 13:46 | 45.45067 | 9.88449 | 6127 ft | 302 kts | 91° |
| 2026-04-26 13:46 | 45.45544 | 9.91256 | 5958 ft | 288 kts | 61° |
| 2026-04-26 13:47 | 45.46873 | 9.93255 | 5944 ft | 272 kts | 36° |
| 2026-04-26 13:47 | 45.48404 | 9.94691 | 5944 ft | 259 kts | 36° |
| 2026-04-26 13:47 | 45.49892 | 9.96105 | 5942 ft | 255 kts | 29° |
| 2026-04-26 13:47 | 45.51570 | 9.96700 | 5759 ft | 254 kts | 1° |
| 2026-04-26 13:48 | 45.53310 | 9.96529 | 5564 ft | 247 kts | 356° |
| 2026-04-26 13:48 | 45.55014 | 9.96323 | 5273 ft | 243 kts | 357° |
| 2026-04-26 13:48 | 45.56670 | 9.96158 | 5100 ft | 232 kts | 358° |
| 2026-04-26 13:48 | 45.58241 | 9.96026 | 4879 ft | 220 kts | 359° |
| 2026-04-26 13:49 | 45.59748 | 9.95916 | 4413 ft | 215 kts | 358° |
| 2026-04-26 13:49 | 45.61217 | 9.95651 | 4016 ft | 209 kts | 341° |
| 2026-04-26 13:49 | 45.62279 | 9.94398 | 3864 ft | 194 kts | 301° |
| 2026-04-26 13:49 | 45.62783 | 9.92683 | 3684 ft | 184 kts | 285° |
| 2026-04-26 13:50 | 45.63034 | 9.90940 | 3433 ft | 180 kts | 284° |
| 2026-04-26 13:50 | 45.63344 | 9.89230 | 3199 ft | 176 kts | 283° |
| 2026-04-26 13:50 | 45.63655 | 9.87550 | 2988 ft | 173 kts | 282° |
| 2026-04-26 13:50 | 45.63966 | 9.85879 | 2737 ft | 169 kts | 282° |
| 2026-04-26 13:51 | 45.64257 | 9.84316 | 2495 ft | 160 kts | 282° |
| 2026-04-26 13:51 | 45.64526 | 9.82869 | 2255 ft | 142 kts | 281° |
| 2026-04-26 13:51 | 45.64779 | 9.81507 | 2070 ft | 142 kts | 282° |
| 2026-04-26 13:51 | 45.65032 | 9.80144 | 1896 ft | 141 kts | 282° |
| 2026-04-26 13:52 | 45.65283 | 9.78790 | 1727 ft | 141 kts | 283° |
| 2026-04-26 13:52 | 45.65531 | 9.77448 | 1522 ft | 139 kts | 282° |
| 2026-04-26 13:52 | 45.65773 | 9.76123 | 1358 ft | 137 kts | 284° |
| 2026-04-26 13:52 | 45.66019 | 9.74805 | 1177 ft | 137 kts | 283° |
| 2026-04-26 13:53 | 45.66264 | 9.73495 | 966 ft | 135 kts | 284° |
| 2026-04-26 13:53 | 45.66505 | 9.72199 | 812 ft | 135 kts | 283° |
| 2026-04-26 13:53 | 45.66711 | 9.71080 | 793 ft | 81 kts | 285° |
| 2026-04-26 13:53 | 45.66815 | 9.70519 | 793 ft | 50 kts | 284° |
| 2026-04-26 13:54 | 45.66876 | 9.70193 | 793 ft | 28 kts | 285° |
| 2026-04-26 13:54 | 45.66870 | 9.69963 | 793 ft | 24 kts | 239° |
| 2026-04-26 13:54 | 45.66814 | 9.69814 | 793 ft | 14 kts | 240° |
| 2026-04-26 13:55 | 45.66824 | 9.69567 | 793 ft | 12 kts | 285° |
| 2026-04-26 13:55 | 45.66836 | 9.69503 | 793 ft | 7 kts | 276° |
| 2026-04-26 13:55 | 45.66767 | 9.69453 | 793 ft | 4 kts | 194° |
| 2026-04-26 13:56 | 45.66762 | 9.69451 | 793 ft | 0 kts | 194° |